KSDF/SDF METAR and TAF weather

Enter ICAO airport designator
Station Type Date Time Source
KSDF METAR 2019/02/23 22:56 UTC NOAA

KSDF 232256Z 15004KT 4SM RA BR FEW016 SCT031 OVC080 14/13 A2984 RMK AO2 LTG DSNT S TSE12 SLP106 TS DSIPTD P0023 T01390128


Station Type Date Time Source
KSDF Decoded METAR 2019/02/23 22:56 UTC NOAA

STANDIFORD FIELD, KY, United States (KSDF) 38-11N 085-44W 146M
Feb 23, 2019 - 05:56 PM EST / 2019.02.23 2256 UTC
Wind: from the SSE (150 degrees) at 5 MPH (4 KT):0
Visibility: 4 mile(s):0
Sky conditions: overcast
Weather: rain; mist; Lightning observed
Precipitation last hour: 0.23 inches
Temperature: 57.0 F (13.9 C)
Dew Point: 55.0 F (12.8 C)
Relative Humidity: 93%
Pressure (altimeter): 29.84 in. Hg (1010 hPa)
ob: KSDF 232256Z 15004KT 4SM RA BR FEW016 SCT031 OVC080 14/13 A2984 RMK AO2 LTG DSNT S TSE12 SLP106 TS DSIPTD P0023 T01390128
cycle: 23

Station Type Date Time Source
KSDF TAF 2019/02/23 22:22 UTC NOAA

TAF
AMD KSDF 232220Z 2322/2424 18010KT 5SM RA BKN025 OVC080
TEMPO 2322/2324 4SM TSRA BKN021CB
FM240100 17011G21KT 5SM BR VCSH BKN025 OVC080
TEMPO 2401/2405 VRB20G40KT 3SM TSRA OVC015CB
FM240600 23017G27KT P6SM SCT035
FM241100 24019G32KT P6SM BKN060
FM241300 25024G35KT P6SM BKN025


Example: see airport list